createdAt,value
2023-04-09T00:02:10.065Z,7.41
2023-04-09T00:05:14.183Z,7.55
2023-04-09T00:08:16.090Z,7.64
2023-04-09T00:11:17.825Z,7.72
2023-04-09T00:14:19.655Z,7.65
2023-04-09T00:17:21.538Z,7.73
2023-04-09T00:20:24.799Z,7.65
2023-04-09T00:23:26.516Z,7.59
2023-04-09T00:26:28.343Z,7.60
2023-04-09T00:29:30.147Z,7.50
2023-04-09T00:32:32.140Z,7.49
2023-04-09T00:35:35.249Z,7.49
2023-04-09T00:38:36.922Z,7.51
2023-04-09T00:41:38.881Z,7.54
2023-04-09T00:44:40.773Z,7.50
2023-04-09T00:47:45.383Z,7.62
2023-04-09T00:50:48.597Z,7.57
2023-04-09T00:53:50.924Z,7.54
2023-04-09T00:56:53.120Z,7.42
2023-04-09T00:59:55.399Z,7.41
2023-04-09T01:02:59.180Z,7.42
2023-04-09T01:06:07.791Z,7.38
2023-04-09T01:09:18.146Z,7.29
2023-04-09T01:12:33.104Z,7.09
2023-04-09T01:15:38.556Z,7.32
2023-04-09T01:18:50.468Z,7.23
2023-04-09T01:21:57.607Z,7.03
2023-04-09T01:25:09.525Z,7.09
2023-04-09T01:28:21.381Z,7.02
2023-04-09T01:31:32.046Z,6.89
2023-04-09T01:34:35.114Z,6.84
2023-04-09T01:37:38.918Z,6.88
2023-04-09T01:40:41.591Z,6.84
2023-04-09T01:43:45.775Z,6.89
2023-04-09T01:46:48.533Z,6.85
2023-04-09T01:49:51.762Z,6.71
2023-04-09T01:52:53.614Z,6.74
2023-04-09T01:55:58.080Z,6.41
2023-04-09T01:59:01.314Z,6.37
2023-04-09T02:02:09.888Z,6.22
2023-04-09T02:05:15.386Z,6.27
2023-04-09T02:08:20.661Z,6.14
2023-04-09T02:11:23.869Z,6.24
2023-04-09T02:14:28.378Z,6.43
2023-04-09T02:17:30.211Z,6.29
2023-04-09T02:20:32.530Z,5.98
2023-04-09T02:23:35.225Z,5.84
2023-04-09T02:26:37.067Z,5.69
2023-04-09T02:29:40.851Z,5.61
2023-04-09T02:32:42.572Z,5.33
2023-04-09T02:35:44.281Z,5.15
2023-04-09T02:38:46.121Z,5.04
2023-04-09T02:41:47.913Z,5.06
2023-04-09T02:44:51.279Z,5.03
2023-04-09T02:47:53.091Z,5.01
2023-04-09T02:50:55.352Z,4.89
2023-04-09T02:53:57.147Z,4.73
2023-04-09T02:56:59.016Z,4.76
2023-04-09T03:00:02.108Z,4.82
2023-04-09T03:03:06.446Z,4.72
2023-04-09T03:06:08.314Z,4.64
2023-04-09T03:09:10.043Z,4.97
2023-04-09T03:12:11.909Z,5.20
2023-04-09T03:15:14.957Z,5.33
2023-04-09T03:18:16.622Z,5.53
2023-04-09T03:21:18.764Z,5.26
2023-04-09T03:24:23.140Z,5.33
2023-04-09T03:27:26.325Z,5.28
2023-04-09T03:30:32.479Z,5.21
2023-04-09T03:33:36.504Z,5.18
2023-04-09T03:36:38.319Z,5.13
2023-04-09T03:39:45.896Z,5.10
2023-04-09T03:42:47.637Z,5.06
2023-04-09T03:45:52.782Z,5.24
2023-04-09T03:49:01.166Z,5.34
2023-04-09T03:52:11.721Z,5.36
2023-04-09T03:55:17.404Z,5.39
2023-04-09T03:58:19.607Z,5.35
2023-04-09T04:01:23.696Z,5.38
2023-04-09T04:04:32.336Z,5.79
2023-04-09T04:07:34.075Z,6.04
2023-04-09T04:10:41.915Z,6.35
2023-04-09T04:13:45.322Z,6.59
2023-04-09T04:16:48.267Z,6.84
2023-04-09T04:19:53.796Z,6.97
2023-04-09T04:22:56.625Z,6.85
2023-04-09T04:26:00.239Z,6.81
2023-04-09T04:29:09.885Z,6.74
2023-04-09T04:32:33.717Z,6.74
2023-04-09T04:35:39.602Z,6.74
2023-04-09T04:38:45.296Z,6.62
2023-04-09T04:41:52.980Z,6.70
2023-04-09T04:44:58.056Z,6.72
2023-04-09T04:48:21.665Z,6.63
2023-04-09T04:51:23.508Z,6.60
2023-04-09T04:54:42.665Z,6.59
2023-04-09T04:57:46.788Z,6.70
2023-04-09T05:00:49.124Z,6.58
2023-04-09T05:03:53.581Z,6.59
2023-04-09T05:07:07.724Z,6.59
2023-04-09T05:10:12.845Z,6.79
2023-04-09T05:13:17.886Z,6.67
2023-04-09T05:16:20.463Z,6.71
2023-04-09T05:19:29.957Z,6.72
2023-04-09T05:22:36.390Z,6.72
2023-04-09T05:25:38.886Z,6.68
2023-04-09T05:28:43.123Z,6.69
2023-04-09T05:31:50.633Z,6.88
2023-04-09T05:35:02.701Z,6.90
2023-04-09T05:38:06.359Z,6.96
2023-04-09T05:41:09.095Z,7.06
2023-04-09T05:44:18.077Z,7.11
2023-04-09T05:47:20.574Z,7.13
2023-04-09T05:50:51.128Z,7.28
2023-04-09T05:53:56.335Z,7.27
2023-04-09T05:56:58.220Z,7.30
2023-04-09T06:00:00.182Z,7.31
2023-04-09T06:03:02.047Z,7.49
2023-04-09T06:06:05.710Z,7.56
2023-04-09T06:09:08.895Z,7.70
2023-04-09T06:12:12.462Z,7.73
2023-04-09T06:15:14.284Z,7.67
2023-04-09T06:18:16.732Z,7.75
2023-04-09T06:21:19.982Z,7.75
2023-04-09T06:24:21.825Z,7.70
2023-04-09T06:27:23.744Z,7.78
2023-04-09T06:30:25.810Z,7.94
2023-04-09T06:33:27.676Z,7.92
2023-04-09T06:36:30.910Z,8.09
2023-04-09T06:39:33.278Z,8.23
2023-04-09T06:42:35.174Z,8.37
2023-04-09T06:45:47.383Z,8.55
2023-04-09T06:48:49.095Z,8.62
2023-04-09T06:51:53.773Z,8.67
2023-04-09T06:54:55.540Z,8.66
2023-04-09T06:57:57.358Z,8.52
2023-04-09T07:01:00.043Z,8.65
2023-04-09T07:04:01.851Z,8.69
2023-04-09T07:07:05.389Z,8.92
2023-04-09T07:10:08.262Z,8.64
2023-04-09T07:13:10.507Z,8.60
2023-04-09T07:16:12.216Z,8.47
2023-04-09T07:19:14.006Z,8.37
2023-04-09T07:22:17.031Z,8.52
2023-04-09T07:25:18.710Z,8.63
2023-04-09T07:28:20.655Z,9.01
2023-04-09T07:31:22.598Z,9.09
2023-04-09T07:34:24.432Z,9.26
2023-04-09T07:37:27.565Z,9.23
2023-04-09T07:40:29.275Z,9.28
2023-04-09T07:43:31.997Z,9.24
2023-04-09T07:46:33.725Z,9.34
2023-04-09T07:49:36.316Z,9.46
2023-04-09T07:52:39.412Z,9.65
2023-04-09T07:55:41.332Z,9.57
2023-04-09T07:58:43.491Z,9.58
2023-04-09T08:01:45.584Z,9.90
2023-04-09T08:04:47.491Z,9.89
2023-04-09T08:07:52.143Z,10.06
2023-04-09T08:10:53.846Z,9.92
2023-04-09T08:13:56.182Z,10.07
2023-04-09T08:17:02.168Z,10.13
2023-04-09T08:20:04.494Z,10.09
2023-04-09T08:23:07.467Z,10.21
2023-04-09T08:26:09.139Z,10.41
2023-04-09T08:29:12.950Z,10.64
2023-04-09T08:32:15.182Z,10.51
2023-04-09T08:35:17.279Z,10.38
2023-04-09T08:38:20.472Z,10.21
2023-04-09T08:41:24.692Z,10.34
2023-04-09T08:44:26.724Z,10.72
2023-04-09T08:47:28.687Z,10.94
2023-04-09T08:50:31.340Z,10.78
2023-04-09T08:53:36.141Z,11.15
2023-04-09T08:56:37.610Z,11.43
2023-04-09T08:59:39.396Z,11.54
2023-04-09T09:03:01.740Z,11.77
2023-04-09T09:06:03.647Z,11.73
2023-04-09T09:09:08.769Z,12.11
2023-04-09T09:12:10.458Z,11.80
2023-04-09T09:15:27.135Z,11.95
2023-04-09T09:18:38.451Z,12.03
2023-04-09T09:21:40.478Z,12.21
2023-04-09T09:24:51.225Z,12.52
2023-04-09T09:27:53.466Z,12.20
2023-04-09T09:30:55.309Z,12.08
2023-04-09T09:33:57.084Z,11.83
2023-04-09T09:36:58.880Z,12.14
2023-04-09T09:40:02.039Z,12.03
2023-04-09T09:43:03.854Z,12.05
2023-04-09T09:46:06.087Z,12.02
2023-04-09T09:49:08.757Z,12.19
2023-04-09T09:52:11.620Z,12.58
2023-04-09T09:55:17.909Z,12.16
2023-04-09T09:58:23.638Z,12.75
2023-04-09T10:01:28.048Z,12.62
2023-04-09T10:04:33.399Z,12.53
2023-04-09T10:07:36.497Z,12.74
2023-04-09T10:10:42.307Z,12.47
2023-04-09T10:13:48.924Z,12.49
2023-04-09T10:16:51.429Z,12.97
2023-04-09T10:20:01.701Z,13.02
2023-04-09T10:23:09.634Z,12.73
2023-04-09T10:26:12.972Z,13.08
2023-04-09T10:29:16.539Z,12.82
2023-04-09T10:32:21.078Z,12.89
2023-04-09T10:35:26.755Z,13.26
2023-04-09T10:38:36.752Z,13.17
2023-04-09T10:41:40.134Z,13.63
2023-04-09T10:44:42.527Z,13.66
2023-04-09T10:47:46.253Z,13.41
2023-04-09T10:50:51.102Z,13.58
2023-04-09T10:53:54.223Z,13.36
2023-04-09T10:57:15.507Z,13.58
2023-04-09T11:00:18.772Z,13.31
2023-04-09T11:03:23.166Z,13.61
2023-04-09T11:06:25.987Z,13.91
2023-04-09T11:09:27.768Z,13.44
2023-04-09T11:12:30.844Z,13.63
2023-04-09T11:15:35.770Z,13.43
2023-04-09T11:18:37.640Z,13.06
2023-04-09T11:21:46.008Z,13.18
2023-04-09T11:24:48.570Z,13.76
2023-04-09T11:27:52.779Z,14.34
2023-04-09T11:30:54.773Z,14.10
2023-04-09T11:33:56.730Z,14.15
2023-04-09T11:36:59.625Z,14.42
2023-04-09T11:40:01.386Z,14.26
2023-04-09T11:43:08.037Z,14.68
2023-04-09T11:46:10.207Z,14.55
2023-04-09T11:49:13.769Z,14.49
2023-04-09T11:52:18.476Z,14.38
2023-04-09T11:55:24.940Z,14.00
2023-04-09T11:58:28.037Z,13.97
2023-04-09T12:01:32.573Z,14.16
2023-04-09T12:04:34.281Z,14.06
2023-04-09T12:07:37.456Z,14.21
2023-04-09T12:10:39.977Z,14.43
2023-04-09T12:13:44.302Z,14.06
2023-04-09T12:16:46.134Z,14.13
2023-04-09T12:19:48.726Z,14.53
2023-04-09T12:22:50.476Z,14.52
2023-04-09T12:25:52.201Z,14.48
2023-04-09T12:28:55.380Z,14.29
2023-04-09T12:31:57.430Z,14.33
2023-04-09T12:34:59.196Z,14.11
2023-04-09T12:38:01.063Z,15.11
2023-04-09T12:41:02.860Z,14.75
2023-04-09T12:44:07.297Z,14.25
2023-04-09T12:47:09.069Z,14.55
2023-04-09T12:50:12.602Z,14.58
2023-04-09T12:53:14.305Z,14.21
2023-04-09T12:56:16.109Z,13.78
2023-04-09T12:59:19.176Z,14.26
2023-04-09T13:02:21.924Z,15.62
2023-04-09T13:05:23.872Z,14.47
2023-04-09T13:08:25.739Z,14.58
2023-04-09T13:11:27.573Z,14.49
2023-04-09T13:14:30.720Z,14.22
2023-04-09T13:17:32.562Z,14.15
2023-04-09T13:20:34.350Z,14.23
2023-04-09T13:23:36.252Z,15.60
2023-04-09T13:26:39.092Z,16.05
2023-04-09T13:29:42.200Z,15.55
2023-04-09T13:32:44.148Z,15.63
2023-04-09T13:35:46.761Z,15.98
2023-04-09T13:38:49.117Z,15.42
2023-04-09T13:41:51.171Z,15.52
2023-04-09T13:44:55.426Z,15.09
2023-04-09T13:47:57.577Z,15.49
2023-04-09T13:50:59.547Z,16.70
2023-04-09T13:54:02.759Z,16.95
2023-04-09T13:57:06.903Z,17.04
2023-04-09T14:00:11.150Z,17.25
2023-04-09T14:03:14.328Z,18.06
2023-04-09T14:06:16.164Z,18.16
2023-04-09T14:09:18.004Z,18.69
2023-04-09T14:12:19.891Z,18.69
2023-04-09T14:15:23.371Z,19.26
2023-04-09T14:18:25.282Z,19.97
2023-04-09T14:21:27.656Z,19.15
2023-04-09T14:24:30.982Z,19.09
2023-04-09T14:27:33.139Z,18.16
2023-04-09T14:30:36.271Z,18.28
2023-04-09T14:33:38.036Z,18.48
2023-04-09T14:36:39.801Z,17.32
2023-04-09T14:39:41.503Z,17.00
2023-04-09T14:42:43.545Z,17.48
2023-04-09T14:45:46.660Z,18.17
2023-04-09T14:48:48.673Z,17.57
2023-04-09T14:51:50.548Z,17.15
2023-04-09T14:54:52.268Z,17.75
2023-04-09T14:57:54.044Z,18.05
2023-04-09T15:00:57.592Z,17.10
2023-04-09T15:04:00.228Z,16.94
2023-04-09T15:07:02.274Z,16.64
2023-04-09T15:10:04.440Z,16.43
2023-04-09T15:13:06.145Z,16.53
2023-04-09T15:16:09.906Z,17.58
2023-04-09T15:19:11.780Z,18.85
2023-04-09T15:22:13.724Z,19.03
2023-04-09T15:25:15.703Z,19.22
2023-04-09T15:28:17.492Z,18.82
2023-04-09T15:31:21.199Z,19.56
2023-04-09T15:34:23.750Z,18.83
2023-04-09T15:37:25.484Z,18.97
2023-04-09T15:40:29.422Z,18.35
2023-04-09T15:43:31.625Z,18.80
2023-04-09T15:46:35.036Z,18.29
2023-04-09T15:49:37.073Z,18.62
2023-04-09T15:52:38.757Z,19.65
2023-04-09T15:55:43.150Z,19.20
2023-04-09T15:58:44.867Z,18.83
2023-04-09T16:01:48.618Z,18.70
2023-04-09T16:04:50.597Z,18.86
2023-04-09T16:07:52.500Z,17.93
2023-04-09T16:10:56.331Z,17.86
2023-04-09T16:13:58.916Z,17.47
2023-04-09T16:17:01.971Z,17.21
2023-04-09T16:20:04.202Z,16.57
2023-04-09T16:23:05.989Z,16.44
2023-04-09T16:26:07.735Z,16.51
2023-04-09T16:29:09.606Z,16.40
2023-04-09T16:32:12.804Z,16.22
2023-04-09T16:35:14.790Z,16.08
2023-04-09T16:38:16.667Z,16.21
2023-04-09T16:41:18.547Z,16.24
2023-04-09T16:44:20.483Z,16.04
2023-04-09T16:47:23.786Z,16.00
2023-04-09T16:50:26.198Z,15.74
2023-04-09T16:53:27.947Z,16.46
2023-04-09T16:56:29.691Z,16.45
2023-04-09T16:59:31.513Z,16.13
2023-04-09T17:02:35.444Z,15.93
2023-04-09T17:05:37.997Z,15.86
2023-04-09T17:08:40.033Z,16.20
2023-04-09T17:11:42.231Z,15.72
2023-04-09T17:14:44.488Z,15.32
2023-04-09T17:17:51.121Z,15.61
2023-04-09T17:20:53.483Z,15.28
2023-04-09T17:23:55.305Z,15.39
2023-04-09T17:26:57.041Z,15.60
2023-04-09T17:29:58.802Z,15.30
2023-04-09T17:33:02.094Z,15.49
2023-04-09T17:36:04.089Z,15.27
2023-04-09T17:39:06.484Z,15.11
2023-04-09T17:42:11.821Z,14.99
2023-04-09T17:45:13.726Z,15.07
2023-04-09T17:48:16.923Z,14.61
2023-04-09T17:51:19.820Z,13.84
2023-04-09T17:54:21.845Z,13.64
2023-04-09T17:57:23.465Z,13.39
2023-04-09T18:00:25.458Z,13.00
2023-04-09T18:03:28.663Z,12.79
2023-04-09T18:06:31.464Z,12.65
2023-04-09T18:09:33.489Z,12.59
2023-04-09T18:12:35.249Z,12.39
2023-04-09T18:15:37.054Z,12.21
2023-04-09T18:18:40.326Z,12.13
2023-04-09T18:21:42.050Z,12.15
2023-04-09T18:24:43.976Z,12.01
2023-04-09T18:27:45.704Z,11.99
2023-04-09T18:30:47.705Z,11.79
2023-04-09T18:33:51.385Z,11.69
2023-04-09T18:36:54.134Z,11.64
2023-04-09T18:39:56.530Z,11.89
2023-04-09T18:42:58.209Z,11.73
2023-04-09T18:45:59.971Z,11.70
2023-04-09T18:49:03.889Z,11.63
2023-04-09T18:52:06.383Z,11.91
2023-04-09T18:55:09.543Z,12.11
2023-04-09T18:58:15.532Z,12.10
2023-04-09T19:01:20.008Z,12.04
2023-04-09T19:04:23.315Z,11.96
2023-04-09T19:07:25.105Z,11.79
2023-04-09T19:10:28.196Z,11.49
2023-04-09T19:13:30.370Z,11.33
2023-04-09T19:16:32.428Z,11.29
2023-04-09T19:19:35.914Z,11.36
2023-04-09T19:22:37.691Z,11.65
2023-04-09T19:25:39.761Z,11.64
2023-04-09T19:28:41.591Z,11.70
2023-04-09T19:31:43.524Z,11.74
2023-04-09T19:34:47.035Z,11.78
2023-04-09T19:37:49.438Z,11.61
2023-04-09T19:40:51.270Z,11.59
2023-04-09T19:43:53.073Z,11.54
2023-04-09T19:46:55.467Z,11.57
2023-04-09T19:49:58.679Z,11.49
2023-04-09T19:53:00.336Z,11.45
2023-04-09T19:56:02.334Z,11.20
2023-04-09T19:59:04.495Z,11.12
2023-04-09T20:02:06.915Z,11.22
2023-04-09T20:05:10.452Z,11.35
2023-04-09T20:08:15.204Z,11.23
2023-04-09T20:11:17.838Z,11.14
2023-04-09T20:14:19.531Z,11.13
2023-04-09T20:17:21.822Z,11.12
2023-04-09T20:20:25.556Z,10.91
2023-04-09T20:23:27.250Z,10.90
2023-04-09T20:26:28.927Z,10.88
2023-04-09T20:29:30.743Z,10.90
2023-04-09T20:32:33.106Z,11.03
2023-04-09T20:35:36.575Z,10.97
2023-04-09T20:38:38.357Z,10.84
2023-04-09T20:41:40.277Z,10.88
2023-04-09T20:44:43.311Z,10.85
2023-04-09T20:47:45.280Z,10.75
2023-04-09T20:50:48.440Z,10.42
2023-04-09T20:53:50.169Z,10.44
2023-04-09T20:56:52.258Z,10.41
2023-04-09T20:59:54.292Z,10.58
2023-04-09T21:02:56.144Z,10.48
2023-04-09T21:05:59.232Z,10.49
2023-04-09T21:09:01.399Z,10.33
2023-04-09T21:12:03.059Z,10.24
2023-04-09T21:15:05.769Z,10.18
2023-04-09T21:18:07.430Z,10.31
2023-04-09T21:21:10.825Z,10.13
2023-04-09T21:24:12.549Z,10.37
2023-04-09T21:27:15.115Z,10.34
2023-04-09T21:30:16.861Z,10.19
2023-04-09T21:33:19.350Z,10.02
2023-04-09T21:36:22.524Z,10.14
2023-04-09T21:39:24.235Z,10.07
2023-04-09T21:42:26.359Z,9.93
2023-04-09T21:45:28.802Z,10.01
2023-04-09T21:48:30.596Z,9.99
2023-04-09T21:51:33.746Z,10.22
2023-04-09T21:54:36.013Z,9.93
2023-04-09T21:57:37.690Z,10.19
2023-04-09T22:00:39.450Z,10.05
2023-04-09T22:03:41.693Z,10.07
2023-04-09T22:06:46.707Z,10.09
2023-04-09T22:09:48.458Z,9.89
2023-04-09T22:12:50.599Z,9.85
2023-04-09T22:15:52.391Z,9.71
2023-04-09T22:18:54.882Z,9.73
2023-04-09T22:21:58.623Z,9.50
2023-04-09T22:25:00.408Z,9.46
2023-04-09T22:28:02.330Z,9.74
2023-04-09T22:31:04.152Z,9.69
2023-04-09T22:34:19.301Z,9.50
2023-04-09T22:37:23.476Z,9.35
2023-04-09T22:40:25.424Z,9.28
2023-04-09T22:43:28.416Z,9.10
2023-04-09T22:46:30.903Z,8.72
2023-04-09T22:49:32.599Z,8.48
2023-04-09T22:52:35.958Z,8.03
2023-04-09T22:55:38.262Z,7.84
2023-04-09T22:58:40.183Z,7.67
2023-04-09T23:01:42.471Z,7.49
2023-04-09T23:04:45.498Z,7.27
2023-04-09T23:07:48.723Z,7.21
2023-04-09T23:10:50.520Z,7.26
2023-04-09T23:13:52.212Z,7.14
2023-04-09T23:16:54.022Z,7.04
2023-04-09T23:19:55.736Z,7.00
2023-04-09T23:22:58.848Z,6.88
2023-04-09T23:26:00.931Z,6.89
2023-04-09T23:29:02.730Z,6.88
2023-04-09T23:32:04.923Z,6.79
2023-04-09T23:35:06.955Z,6.54
2023-04-09T23:38:10.148Z,6.48
2023-04-09T23:41:11.998Z,6.11
2023-04-09T23:44:13.819Z,6.23
2023-04-09T23:47:16.412Z,6.30
2023-04-09T23:50:18.454Z,6.18
2023-04-09T23:53:21.660Z,6.18
2023-04-09T23:56:23.358Z,6.05
2023-04-09T23:59:25.127Z,5.91
